Wetterdaten: Samstag, 18.12.2010
Datum Zeit Temp. A. Feuchte A. Luftdruck Regen Wind Richtung Richtung Sonnenschein UV Solar Windben
18.12.2010 00:00 -3,4 C 90 % 996,3 hPa 0,0 mm 0,0 km/h (0 Bft) S 180 0 min 0 UV-I 0 W/m 1,6 km/h (1 Bft)
18.12.2010 00:10 -3,6 C 90 % 996,2 hPa 0,0 mm 0,0 km/h (0 Bft) N 0 0 min 0 UV-I 0 W/m 0,0 km/h (0 Bft)
18.12.2010 00:20 -3,8 C 89 % 996,2 hPa 0,0 mm 0,0 km/h (0 Bft) N 0 0 min 0 UV-I 0 W/m 0,0 km/h (0 Bft)
18.12.2010 00:30 -4,1 C 89 % 996,2 hPa 0,0 mm 0,0 km/h (0 Bft) N 0 0 min 0 UV-I 0 W/m 0,0 km/h (0 Bft)
18.12.2010 00:40 -4,3 C 89 % 996,1 hPa 0,0 mm 0,0 km/h (0 Bft) N 0 0 min 0 UV-I 0 W/m 0,0 km/h (0 Bft)
18.12.2010 00:50 -4,7 C 89 % 996,1 hPa 0,0 mm 0,0 km/h (0 Bft) N 0 0 min 0 UV-I 0 W/m 0,0 km/h (0 Bft)
18.12.2010 01:00 -5,1 C 89 % 996,1 hPa 0,0 mm 0,0 km/h (0 Bft) N 0 0 min 0 UV-I 0 W/m 0,0 km/h (0 Bft)
18.12.2010 01:10 -5,4 C 89 % 996,2 hPa 0,0 mm 0,0 km/h (0 Bft) N 0 0 min 0 UV-I 0 W/m 0,0 km/h (0 Bft)
18.12.2010 01:20 -5,7 C 89 % 996,3 hPa 0,0 mm 0,0 km/h (0 Bft) N 0 0 min 0 UV-I 0 W/m 0,0 km/h (0 Bft)
18.12.2010 01:30 -6,0 C 88 % 996,4 hPa 0,0 mm 0,0 km/h (0 Bft) S 180 0 min 0 UV-I 0 W/m 1,6 km/h (1 Bft)
18.12.2010 01:40 -6,2 C 88 % 996,4 hPa 0,0 mm 0,0 km/h (0 Bft) S 180 0 min 0 UV-I 0 W/m 3,2 km/h (1 Bft)
18.12.2010 01:50 -6,4 C 88 % 996,5 hPa 0,0 mm 0,0 km/h (0 Bft) S 180 0 min 0 UV-I 0 W/m 3,2 km/h (1 Bft)
18.12.2010 02:00 -6,7 C 88 % 996,5 hPa 0,0 mm 0,0 km/h (0 Bft) S 180 0 min 0 UV-I 0 W/m 1,6 km/h (1 Bft)
18.12.2010 02:10 -6,8 C 88 % 996,6 hPa 0,0 mm 0,0 km/h (0 Bft) S 180 0 min 0 UV-I 0 W/m 1,6 km/h (1 Bft)
18.12.2010 02:20 -6,9 C 88 % 996,7 hPa 0,0 mm 0,0 km/h (0 Bft) S 180 0 min 0 UV-I 0 W/m 3,2 km/h (1 Bft)
18.12.2010 02:30 -7,1 C 88 % 996,9 hPa 0,0 mm 0,0 km/h (0 Bft) S 180 0 min 0 UV-I 0 W/m 3,2 km/h (1 Bft)
18.12.2010 02:40 -7,2 C 88 % 997,0 hPa 0,0 mm 0,0 km/h (0 Bft) S 180 0 min 0 UV-I 0 W/m 3,2 km/h (1 Bft)
18.12.2010 02:50 -7,3 C 88 % 997,1 hPa 0,0 mm 0,0 km/h (0 Bft) S 180 0 min 0 UV-I 0 W/m 1,6 km/h (1 Bft)
18.12.2010 03:00 -7,4 C 88 % 997,0 hPa 0,0 mm 0,0 km/h (0 Bft) S 180 0 min 0 UV-I 0 W/m 3,2 km/h (1 Bft)
18.12.2010 03:10 -7,6 C 88 % 997,1 hPa 0,0 mm 0,0 km/h (0 Bft) S 180 0 min 0 UV-I 0 W/m 1,6 km/h (1 Bft)
18.12.2010 03:20 -7,7 C 88 % 997,0 hPa 0,0 mm 0,0 km/h (0 Bft) S 180 0 min 0 UV-I 0 W/m 1,6 km/h (1 Bft)
18.12.2010 03:30 -7,8 C 88 % 997,0 hPa 0,0 mm 0,0 km/h (0 Bft) N 0 0 min 0 UV-I 0 W/m 0,0 km/h (0 Bft)
18.12.2010 03:40 -8,0 C 88 % 997,0 hPa 0,0 mm 0,0 km/h (0 Bft) N 0 0 min 0 UV-I 0 W/m 0,0 km/h (0 Bft)
18.12.2010 03:50 -8,1 C 88 % 997,0 hPa 0,0 mm 0,0 km/h (0 Bft) N 0 0 min 0 UV-I 0 W/m 0,0 km/h (0 Bft)
18.12.2010 04:00 -8,3 C 88 % 997,0 hPa 0,0 mm 0,0 km/h (0 Bft) N 0 0 min 0 UV-I 0 W/m 0,0 km/h (0 Bft)
18.12.2010 04:10 -8,6 C 88 % 997,0 hPa 0,0 mm 0,0 km/h (0 Bft) N 0 0 min 0 UV-I 0 W/m 0,0 km/h (0 Bft)
18.12.2010 04:20 -8,8 C 88 % 997,0 hPa 0,0 mm 0,0 km/h (0 Bft) N 0 0 min 0 UV-I 0 W/m 0,0 km/h (0 Bft)
18.12.2010 04:30 -9,0 C 88 % 997,0 hPa 0,0 mm 0,0 km/h (0 Bft) N 0 0 min 0 UV-I 0 W/m 0,0 km/h (0 Bft)
18.12.2010 04:40 -9,2 C 88 % 996,9 hPa 0,0 mm 0,0 km/h (0 Bft) N 0 0 min 0 UV-I 0 W/m 0,0 km/h (0 Bft)
18.12.2010 04:50 -9,4 C 88 % 996,9 hPa 0,0 mm 0,0 km/h (0 Bft) N 0 0 min 0 UV-I 0 W/m 0,0 km/h (0 Bft)
18.12.2010 05:00 -9,6 C 88 % 996,9 hPa 0,0 mm 0,0 km/h (0 Bft) N 0 0 min 0 UV-I 0 W/m 0,0 km/h (0 Bft)
18.12.2010 05:10 -9,8 C 88 % 996,9 hPa 0,0 mm 0,0 km/h (0 Bft) N 0 0 min 0 UV-I 0 W/m 0,0 km/h (0 Bft)
18.12.2010 05:20 -9,9 C 88 % 997,0 hPa 0,0 mm 0,0 km/h (0 Bft) N 0 0 min 0 UV-I 0 W/m 0,0 km/h (0 Bft)
18.12.2010 05:30 -10,0 C 88 % 997,0 hPa 0,0 mm 0,0 km/h (0 Bft) N 0 0 min 0 UV-I 0 W/m 0,0 km/h (0 Bft)
18.12.2010 05:40 -10,1 C 88 % 997,1 hPa 0,0 mm 0,0 km/h (0 Bft) N 0 0 min 0 UV-I 0 W/m 0,0 km/h (0 Bft)
18.12.2010 05:50 -10,2 C 88 % 997,0 hPa 0,0 mm 0,0 km/h (0 Bft) N 0 0 min 0 UV-I 0 W/m 0,0 km/h (0 Bft)
18.12.2010 06:00 -10,3 C 88 % 997,1 hPa 0,0 mm 0,0 km/h (0 Bft) N 0 0 min 0 UV-I 0 W/m 0,0 km/h (0 Bft)
18.12.2010 06:10 -10,3 C 88 % 997,1 hPa 0,0 mm 0,0 km/h (0 Bft) N 0 0 min 0 UV-I 0 W/m 0,0 km/h (0 Bft)
18.12.2010 06:20 -10,4 C 88 % 997,0 hPa 0,0 mm 0,0 km/h (0 Bft) N 0 0 min 0 UV-I 0 W/m 0,0 km/h (0 Bft)
18.12.2010 06:30 -10,4 C 88 % 997,1 hPa 0,0 mm 0,0 km/h (0 Bft) N 0 0 min 0 UV-I 0 W/m 0,0 km/h (0 Bft)
18.12.2010 06:40 -10,4 C 88 % 997,1 hPa 0,0 mm 0,0 km/h (0 Bft) N 0 0 min 0 UV-I 0 W/m 0,0 km/h (0 Bft)
18.12.2010 06:50 -10,4 C 88 % 997,1 hPa 0,0 mm 0,0 km/h (0 Bft) S 180 0 min 0 UV-I 0 W/m 1,6 km/h (1 Bft)
18.12.2010 07:00 -10,4 C 88 % 997,0 hPa 0,0 mm 0,0 km/h (0 Bft) N 0 0 min 0 UV-I 0 W/m 0,0 km/h (0 Bft)
18.12.2010 07:10 -10,3 C 89 % 997,1 hPa 0,0 mm 0,0 km/h (0 Bft) N 0 0 min 0 UV-I 0 W/m 0,0 km/h (0 Bft)
18.12.2010 07:20 -10,2 C 89 % 997,0 hPa 0,0 mm 0,0 km/h (0 Bft) N 0 0 min 0 UV-I 0 W/m 0,0 km/h (0 Bft)
18.12.2010 07:30 -10,1 C 89 % 997,2 hPa 0,0 mm 0,0 km/h (0 Bft) N 0 0 min 0 UV-I 0 W/m 0,0 km/h (0 Bft)
18.12.2010 07:40 -9,9 C 89 % 997,4 hPa 0,0 mm 0,0 km/h (0 Bft) N 0 0 min 0 UV-I 0 W/m 0,0 km/h (0 Bft)
18.12.2010 07:50 -9,8 C 89 % 997,4 hPa 0,0 mm 0,0 km/h (0 Bft) S 180 0 min 0 UV-I 0 W/m 1,6 km/h (1 Bft)
18.12.2010 08:00 -9,6 C 89 % 997,4 hPa 0,0 mm 0,6 km/h (0 Bft) S 173 0 min 0 UV-I 0 W/m 4,8 km/h (1 Bft)
18.12.2010 08:10 -9,3 C 90 % 997,3 hPa 0,0 mm 1,6 km/h (1 Bft) S-SO 157 0 min 0 UV-I 0 W/m 4,8 km/h (1 Bft)
18.12.2010 08:20 -8,7 C 90 % 997,6 hPa 0,0 mm 0,0 km/h (0 Bft) S-SO 157 0 min 0 UV-I 0 W/m 3,2 km/h (1 Bft)
18.12.2010 08:30 -8,0 C 91 % 997,9 hPa 0,0 mm 1,6 km/h (1 Bft) S-SO 157 0 min 0 UV-I 0 W/m 8,0 km/h (2 Bft)
18.12.2010 08:40 -7,4 C 91 % 997,8 hPa 0,0 mm 1,6 km/h (1 Bft) S-SO 157 0 min 0 UV-I 0 W/m 6,4 km/h (2 Bft)
18.12.2010 08:50 -6,8 C 91 % 998,0 hPa 0,0 mm 1,6 km/h (1 Bft) SO 135 0 min 0 UV-I 0 W/m 6,4 km/h (2 Bft)
18.12.2010 09:00 -6,3 C 91 % 998,0 hPa 0,0 mm 1,6 km/h (1 Bft) O-SO 112 0 min 0 UV-I 0 W/m 4,8 km/h (1 Bft)
18.12.2010 09:10 -5,9 C 91 % 998,0 hPa 0,0 mm 0,0 km/h (0 Bft) SO 135 0 min 0 UV-I 0 W/m 4,8 km/h (1 Bft)
18.12.2010 09:20 -5,6 C 91 % 998,1 hPa 0,0 mm 0,0 km/h (0 Bft) SO 135 0 min 0 UV-I 0 W/m 1,6 km/h (1 Bft)
18.12.2010 09:30 -5,4 C 91 % 998,2 hPa 0,0 mm 0,0 km/h (0 Bft) SO 135 0 min 0 UV-I 0 W/m 3,2 km/h (1 Bft)
18.12.2010 09:40 -5,2 C 91 % 998,3 hPa 0,0 mm 0,0 km/h (0 Bft) SO 135 0 min 0 UV-I 0 W/m 4,8 km/h (1 Bft)
18.12.2010 09:50 -5,1 C 91 % 998,4 hPa 0,0 mm 1,6 km/h (1 Bft) O-SO 112 0 min 0 UV-I 0 W/m 4,8 km/h (1 Bft)
18.12.2010 10:00 -4,9 C 91 % 998,4 hPa 0,0 mm 1,6 km/h (1 Bft) O-SO 112 0 min 0 UV-I 0 W/m 4,8 km/h (1 Bft)
18.12.2010 10:10 -4,8 C 91 % 998,6 hPa 0,0 mm 1,6 km/h (1 Bft) O-SO 112 0 min 0 UV-I 7 W/m 6,4 km/h (2 Bft)
18.12.2010 10:20 -4,7 C 91 % 998,5 hPa 0,0 mm 1,6 km/h (1 Bft) O-SO 112 0 min 0 UV-I 11 W/m 6,4 km/h (2 Bft)
18.12.2010 10:30 -4,5 C 91 % 998,7 hPa 0,0 mm 1,6 km/h (1 Bft) O-SO 112 10 min 0 UV-I 109 W/m 4,8 km/h (1 Bft)
18.12.2010 10:40 -4,4 C 92 % 998,7 hPa 0,0 mm 0,0 km/h (0 Bft) O-SO 112 10 min 0 UV-I 132 W/m 4,8 km/h (1 Bft)
18.12.2010 10:50 -4,2 C 92 % 998,6 hPa 0,0 mm 1,6 km/h (1 Bft) O-SO 112 10 min 0 UV-I 134 W/m 4,8 km/h (1 Bft)
18.12.2010 11:00 -3,9 C 92 % 998,5 hPa 0,0 mm 1,6 km/h (1 Bft) O-SO 112 10 min 0 UV-I 134 W/m 4,8 km/h (1 Bft)
18.12.2010 11:10 -3,7 C 92 % 998,5 hPa 0,0 mm 1,6 km/h (1 Bft) O-SO 112 10 min 0 UV-I 134 W/m 8,0 km/h (2 Bft)
18.12.2010 11:20 -3,6 C 92 % 998,4 hPa 0,3 mm 1,6 km/h (1 Bft) O-SO 112 10 min 1 UV-I 146 W/m 6,4 km/h (2 Bft)
18.12.2010 11:30 -3,4 C 92 % 998,4 hPa 0,0 mm 1,6 km/h (1 Bft) O-SO 112 10 min 1 UV-I 151 W/m 6,4 km/h (2 Bft)
18.12.2010 11:40 -3,3 C 92 % 998,5 hPa 0,0 mm 1,6 km/h (1 Bft) O-SO 112 10 min 1 UV-I 165 W/m 8,0 km/h (2 Bft)
18.12.2010 11:50 -3,2 C 92 % 998,5 hPa 0,0 mm 1,6 km/h (1 Bft) O-SO 112 10 min 1 UV-I 162 W/m 4,8 km/h (1 Bft)
18.12.2010 12:00 -3,2 C 92 % 998,5 hPa 0,0 mm 1,6 km/h (1 Bft) O-SO 112 0 min 1 UV-I 121 W/m 6,4 km/h (2 Bft)
18.12.2010 12:10 -3,1 C 92 % 998,5 hPa 0,0 mm 1,6 km/h (1 Bft) O 90 10 min 1 UV-I 221 W/m 6,4 km/h (2 Bft)
18.12.2010 12:20 -3,1 C 92 % 998,5 hPa 0,0 mm 1,6 km/h (1 Bft) O 90 10 min 1 UV-I 258 W/m 6,4 km/h (2 Bft)
18.12.2010 12:30 -3,0 C 92 % 998,5 hPa 0,0 mm 0,0 km/h (0 Bft) O-SO 112 10 min 1 UV-I 220 W/m 4,8 km/h (1 Bft)
18.12.2010 12:40 -2,9 C 92 % 998,5 hPa 0,0 mm 0,0 km/h (0 Bft) O-SO 112 10 min 1 UV-I 153 W/m 3,2 km/h (1 Bft)
18.12.2010 12:50 -2,8 C 92 % 998,6 hPa 0,0 mm 0,0 km/h (0 Bft) O-SO 112 10 min 1 UV-I 253 W/m 3,2 km/h (1 Bft)
18.12.2010 13:00 -2,6 C 92 % 998,6 hPa 0,0 mm 0,0 km/h (0 Bft) O-SO 112 10 min 1 UV-I 193 W/m 4,8 km/h (1 Bft)
18.12.2010 13:10 -2,5 C 92 % 998,6 hPa 0,0 mm 0,0 km/h (0 Bft) O-SO 112 10 min 1 UV-I 253 W/m 3,2 km/h (1 Bft)
18.12.2010 13:20 -2,4 C 92 % 998,7 hPa 0,0 mm 0,0 km/h (0 Bft) O-SO 112 10 min 1 UV-I 241 W/m 6,4 km/h (2 Bft)
18.12.2010 13:30 -2,4 C 91 % 998,7 hPa 0,3 mm 1,6 km/h (1 Bft) S 180 0 min 1 UV-I 116 W/m 4,8 km/h (1 Bft)
18.12.2010 13:40 -2,4 C 91 % 998,9 hPa 0,0 mm 0,0 km/h (0 Bft) S 180 0 min 1 UV-I 113 W/m 3,2 km/h (1 Bft)
18.12.2010 13:50 -2,3 C 91 % 998,9 hPa 0,3 mm 0,0 km/h (0 Bft) S 180 0 min 0 UV-I 121 W/m 3,2 km/h (1 Bft)
18.12.2010 14:00 -2,3 C 91 % 998,8 hPa 0,0 mm 0,0 km/h (0 Bft) S 180 10 min 0 UV-I 116 W/m 3,2 km/h (1 Bft)
18.12.2010 14:10 -2,3 C 91 % 999,0 hPa 0,0 mm 0,0 km/h (0 Bft) S 180 0 min 0 UV-I 107 W/m 1,6 km/h (1 Bft)
18.12.2010 14:20 -2,2 C 91 % 999,0 hPa 0,3 mm 0,0 km/h (0 Bft) S 180 0 min 0 UV-I 95 W/m 3,2 km/h (1 Bft)
18.12.2010 14:30 -2,2 C 90 % 999,0 hPa 0,0 mm 0,0 km/h (0 Bft) S 180 10 min 0 UV-I 102 W/m 1,6 km/h (1 Bft)
18.12.2010 14:40 -2,1 C 91 % 999,0 hPa 0,0 mm 0,0 km/h (0 Bft) S 180 10 min 0 UV-I 111 W/m 1,6 km/h (1 Bft)
18.12.2010 14:50 -2,0 C 90 % 999,1 hPa 0,0 mm 0,0 km/h (0 Bft) N 0 0 min 0 UV-I 70 W/m 0,0 km/h (0 Bft)
18.12.2010 15:00 -2,0 C 90 % 999,0 hPa 0,0 mm 0,0 km/h (0 Bft) S 180 0 min 0 UV-I 70 W/m 1,6 km/h (1 Bft)
18.12.2010 15:10 -2,1 C 90 % 999,1 hPa 0,0 mm 0,0 km/h (0 Bft) S 180 10 min 0 UV-I 84 W/m 1,6 km/h (1 Bft)
18.12.2010 15:20 -2,1 C 89 % 999,2 hPa 0,0 mm 0,0 km/h (0 Bft) S 180 10 min 0 UV-I 88 W/m 1,6 km/h (1 Bft)
18.12.2010 15:30 -2,3 C 89 % 999,3 hPa 0,0 mm 0,0 km/h (0 Bft) N 0 0 min 0 UV-I 33 W/m 0,0 km/h (0 Bft)
18.12.2010 15:40 -2,4 C 88 % 999,5 hPa 0,0 mm 0,0 km/h (0 Bft) S 180 0 min 0 UV-I 25 W/m 1,6 km/h (1 Bft)
18.12.2010 15:50 -2,6 C 87 % 999,5 hPa 0,0 mm 0,0 km/h (0 Bft) S 180 0 min 0 UV-I 18 W/m 1,6 km/h (1 Bft)
18.12.2010 16:00 -3,1 C 87 % 999,8 hPa 0,0 mm 0,2 km/h (0 Bft) S 176 0 min 0 UV-I 7 W/m 3,2 km/h (1 Bft)
18.12.2010 16:10 -3,2 C 86 % 1000,0 hPa 0,0 mm 0,0 km/h (0 Bft) S 180 0 min 0 UV-I 7 W/m 1,6 km/h (1 Bft)
18.12.2010 16:20 -3,3 C 86 % 1000,0 hPa 0,0 mm 0,0 km/h (0 Bft) S 180 0 min 0 UV-I 5 W/m 1,6 km/h (1 Bft)
18.12.2010 16:30 -3,5 C 86 % 1000,1 hPa 0,0 mm 0,0 km/h (0 Bft) N 0 0 min 0 UV-I 0 W/m 0,0 km/h (0 Bft)
18.12.2010 16:40 -3,8 C 85 % 1000,2 hPa 0,0 mm 0,0 km/h (0 Bft) S 180 0 min 0 UV-I 0 W/m 1,6 km/h (1 Bft)
18.12.2010 16:50 -4,1 C 84 % 1000,4 hPa 0,0 mm 0,0 km/h (0 Bft) N 0 0 min 0 UV-I 0 W/m 0,0 km/h (0 Bft)
18.12.2010 17:00 -4,4 C 84 % 1000,3 hPa 0,0 mm 0,0 km/h (0 Bft) N 0 0 min 0 UV-I 0 W/m 0,0 km/h (0 Bft)
18.12.2010 17:10 -4,8 C 83 % 1000,4 hPa 0,0 mm 0,0 km/h (0 Bft) N 0 0 min 0 UV-I 0 W/m 0,0 km/h (0 Bft)
18.12.2010 17:20 -5,2 C 83 % 1000,7 hPa 0,0 mm 0,0 km/h (0 Bft) N 0 0 min 0 UV-I 0 W/m 0,0 km/h (0 Bft)
18.12.2010 17:30 -5,4 C 83 % 1000,8 hPa 0,0 mm 0,0 km/h (0 Bft) N 0 0 min 0 UV-I 0 W/m 0,0 km/h (0 Bft)
18.12.2010 17:40 -5,7 C 83 % 1000,7 hPa 0,0 mm 0,0 km/h (0 Bft) S 180 0 min 0 UV-I 0 W/m 1,6 km/h (1 Bft)
18.12.2010 17:50 -5,9 C 83 % 1000,8 hPa 0,0 mm 0,0 km/h (0 Bft) S 180 0 min 0 UV-I 0 W/m 1,6 km/h (1 Bft)
18.12.2010 18:00 -6,1 C 84 % 1000,7 hPa 0,0 mm 0,0 km/h (0 Bft) S 180 0 min 0 UV-I 0 W/m 1,6 km/h (1 Bft)
18.12.2010 18:10 -6,3 C 84 % 1000,7 hPa 0,0 mm 0,0 km/h (0 Bft) N 0 0 min 0 UV-I 0 W/m 0,0 km/h (0 Bft)
18.12.2010 18:20 -6,4 C 84 % 1000,7 hPa 0,0 mm 0,0 km/h (0 Bft) N 0 0 min 0 UV-I 0 W/m 0,0 km/h (0 Bft)
18.12.2010 18:30 -6,6 C 84 % 1000,8 hPa 0,0 mm 0,0 km/h (0 Bft) N 0 0 min 0 UV-I 0 W/m 0,0 km/h (0 Bft)
18.12.2010 18:40 -6,8 C 85 % 1000,8 hPa 0,0 mm 0,0 km/h (0 Bft) N 0 0 min 0 UV-I 0 W/m 0,0 km/h (0 Bft)
18.12.2010 18:50 -6,8 C 85 % 1000,7 hPa 0,0 mm 0,0 km/h (0 Bft) N 0 0 min 0 UV-I 0 W/m 0,0 km/h (0 Bft)
18.12.2010 19:00 -6,9 C 85 % 1000,8 hPa 0,0 mm 0,0 km/h (0 Bft) N 0 0 min 0 UV-I 0 W/m 0,0 km/h (0 Bft)
18.12.2010 19:10 -7,1 C 85 % 1001,0 hPa 0,0 mm 0,0 km/h (0 Bft) N 0 0 min 0 UV-I 0 W/m 0,0 km/h (0 Bft)
18.12.2010 19:20 -7,2 C 85 % 1001,0 hPa 0,0 mm 0,0 km/h (0 Bft) N 0 0 min 0 UV-I 0 W/m 0,0 km/h (0 Bft)
18.12.2010 19:30 -7,4 C 84 % 1001,0 hPa 0,0 mm 0,0 km/h (0 Bft) N 0 0 min 0 UV-I 0 W/m 0,0 km/h (0 Bft)
18.12.2010 19:40 -7,6 C 84 % 1001,1 hPa 0,0 mm 0,0 km/h (0 Bft) N 0 0 min 0 UV-I 0 W/m 0,0 km/h (0 Bft)
18.12.2010 19:50 -7,8 C 84 % 1001,0 hPa 0,0 mm 0,0 km/h (0 Bft) N 0 0 min 0 UV-I 0 W/m 0,0 km/h (0 Bft)
18.12.2010 20:00 -8,0 C 84 % 1001,0 hPa 0,0 mm 0,0 km/h (0 Bft) N 0 0 min 0 UV-I 0 W/m 0,0 km/h (0 Bft)
18.12.2010 20:10 -8,2 C 84 % 1000,9 hPa 0,0 mm 0,0 km/h (0 Bft) N 0 0 min 0 UV-I 0 W/m 0,0 km/h (0 Bft)
18.12.2010 20:20 -8,4 C 84 % 1000,7 hPa 0,0 mm 0,0 km/h (0 Bft) N 0 0 min 0 UV-I 0 W/m 0,0 km/h (0 Bft)
18.12.2010 20:30 -8,6 C 84 % 1000,8 hPa 0,0 mm 0,0 km/h (0 Bft) N 0 0 min 0 UV-I 0 W/m 0,0 km/h (0 Bft)
18.12.2010 20:40 -8,7 C 84 % 1000,9 hPa 0,0 mm 0,0 km/h (0 Bft) N 0 0 min 0 UV-I 0 W/m 0,0 km/h (0 Bft)
18.12.2010 20:50 -8,9 C 85 % 1000,8 hPa 0,0 mm 0,0 km/h (0 Bft) N 0 0 min 0 UV-I 0 W/m 0,0 km/h (0 Bft)
18.12.2010 21:00 -9,1 C 85 % 1000,9 hPa 0,0 mm 0,0 km/h (0 Bft) N 0 0 min 0 UV-I 0 W/m 0,0 km/h (0 Bft)
18.12.2010 21:10 -9,2 C 85 % 1000,9 hPa 0,0 mm 0,0 km/h (0 Bft) N 0 0 min 0 UV-I 0 W/m 0,0 km/h (0 Bft)
18.12.2010 21:20 -9,3 C 85 % 1000,8 hPa 0,0 mm 0,0 km/h (0 Bft) N 0 0 min 0 UV-I 0 W/m 0,0 km/h (0 Bft)
18.12.2010 21:30 -9,4 C 85 % 1000,7 hPa 0,0 mm 0,0 km/h (0 Bft) S 180 0 min 0 UV-I 0 W/m 3,2 km/h (1 Bft)
18.12.2010 21:40 -9,5 C 85 % 1000,7 hPa 0,0 mm 1,6 km/h (1 Bft) S 180 0 min 0 UV-I 0 W/m 6,4 km/h (2 Bft)
18.12.2010 21:50 -9,5 C 86 % 1000,6 hPa 0,0 mm 1,6 km/h (1 Bft) SO 135 0 min 0 UV-I 0 W/m 4,8 km/h (1 Bft)
18.12.2010 22:00 -9,4 C 86 % 1000,6 hPa 0,0 mm 1,6 km/h (1 Bft) O-SO 112 0 min 0 UV-I 0 W/m 4,8 km/h (1 Bft)
18.12.2010 22:10 -9,2 C 87 % 1000,4 hPa 0,0 mm 1,6 km/h (1 Bft) O-SO 112 0 min 0 UV-I 0 W/m 3,2 km/h (1 Bft)
18.12.2010 22:20 -9,1 C 87 % 1000,7 hPa 0,0 mm 1,6 km/h (1 Bft) O-SO 112 0 min 0 UV-I 0 W/m 6,4 km/h (2 Bft)
18.12.2010 22:30 -8,8 C 87 % 1000,4 hPa 0,0 mm 1,6 km/h (1 Bft) O-SO 112 0 min 0 UV-I 0 W/m 4,8 km/h (1 Bft)
18.12.2010 22:40 -8,7 C 88 % 1000,2 hPa 0,0 mm 0,0 km/h (0 Bft) O-SO 112 0 min 0 UV-I 0 W/m 3,2 km/h (1 Bft)
18.12.2010 22:50 -8,6 C 88 % 1000,1 hPa 0,0 mm 0,0 km/h (0 Bft) O-SO 112 0 min 0 UV-I 0 W/m 3,2 km/h (1 Bft)
18.12.2010 23:00 -8,5 C 88 % 999,8 hPa 0,0 mm 0,0 km/h (0 Bft) O-SO 112 0 min 0 UV-I 0 W/m 3,2 km/h (1 Bft)
18.12.2010 23:10 -8,5 C 88 % 999,7 hPa 0,0 mm 0,0 km/h (0 Bft) O-SO 112 0 min 0 UV-I 0 W/m 3,2 km/h (1 Bft)
18.12.2010 23:20 -8,6 C 88 % 999,6 hPa 0,0 mm 1,6 km/h (1 Bft) O-SO 112 0 min 0 UV-I 0 W/m 4,8 km/h (1 Bft)
18.12.2010 23:30 -8,6 C 88 % 999,4 hPa 0,0 mm 3,2 km/h (1 Bft) O-SO 112 0 min 0 UV-I 0 W/m 6,4 km/h (2 Bft)
18.12.2010 23:40 -8,4 C 88 % 999,5 hPa 0,0 mm 1,6 km/h (1 Bft) O-SO 112 0 min 0 UV-I 0 W/m 6,4 km/h (2 Bft)
18.12.2010 23:50 -8,2 C 89 % 999,4 hPa 0,0 mm 0,0 km/h (0 Bft) O-SO 112 0 min 0 UV-I 0 W/m 3,2 km/h (1 Bft)
_ Min-Zeit 06:10 17:10 00:40 - 00:00 - - - - - 00:10
Minimum _ -10,4 C 83 % 996,1 hPa - 0,0 km/h (0 Bft) - - - - - 0,0 km/h (0 Bft)
_ Max-Zeit 14:50 10:40 19:40 11:20 23:30 - - 10:30 12:10 12:20 08:30
Maximum _ -2,0 C 92 % 1001,1 hPa 0,3 mm 3,2 km/h
O-SO (1 Bft)
- - 10 min 1 UV-I 258 W/m 8,0 km/h
S-SO (2 Bft)
Durchschnitt _ -6,4 C 88 % 998,6 hPa #1,0 mm 0,3 km/h (0 Bft) O-SO - #3:40 h 1 UV-I 118 W/m 2,2 km/h (1 Bft)